Time;durP1;ratioP1;P1;durP2;ratioP2;P2;SDS_P1;SDS_P2;PMS_P1;PMS_P2;Temp;Humidity;BMP_temperature;BMP_pressure;BME280_temperature;BME280_humidity;BME280_pressure;Samples;Min_cycle;Max_cycle;Signal;HPM_P1;HPM_P2
2021/09/15 00:01:32;;;;;;;11.33;8.03;;;17.90;99.90;;;;;;5008210;28;20205;-63
2021/09/15 00:03:57;;;;;;;14.60;7.90;;;17.90;99.90;;;;;;5009356;28;20243;-63
2021/09/15 00:06:23;;;;;;;9.83;7.90;;;17.80;99.90;;;;;;5006574;28;20168;-62
2021/09/15 00:08:48;;;;;;;11.90;8.93;;;17.80;99.90;;;;;;5009969;28;20419;-62
2021/09/15 00:11:17;;;;;;;11.53;8.17;;;17.80;99.90;;;;;;5008537;28;20200;-64
2021/09/15 00:13:43;;;;;;;16.90;8.63;;;17.80;99.90;;;;;;5007006;28;20323;-63
2021/09/15 00:16:09;;;;;;;14.00;8.33;;;17.80;99.90;;;;;;5008572;28;20935;-63
2021/09/15 00:18:35;;;;;;;14.93;8.07;;;17.80;99.90;;;;;;5008356;28;20432;-63
2021/09/15 00:21:00;;;;;;;9.80;8.00;;;17.80;99.90;;;;;;5003012;28;20215;-64
2021/09/15 00:23:26;;;;;;;14.67;8.10;;;17.70;99.90;;;;;;5008824;28;20192;-62
2021/09/15 00:25:52;;;;;;;10.70;7.90;;;17.70;99.90;;;;;;5010088;28;20444;-62
2021/09/15 00:28:17;;;;;;;11.97;8.53;;;17.70;99.90;;;;;;5008917;28;20728;-62
2021/09/15 00:30:43;;;;;;;13.20;8.87;;;17.70;99.90;;;;;;5005507;28;20624;-64
2021/09/15 00:33:08;;;;;;;11.67;7.73;;;17.60;99.90;;;;;;5009193;28;20218;-63
2021/09/15 00:35:34;;;;;;;12.67;8.87;;;17.60;99.90;;;;;;5010505;28;20258;-63
2021/09/15 00:38:00;;;;;;;18.67;8.90;;;17.60;99.90;;;;;;5009141;28;20180;-63
2021/09/15 00:40:25;;;;;;;9.23;7.90;;;17.60;99.90;;;;;;4989817;28;20207;-64
2021/09/15 00:42:51;;;;;;;13.50;8.90;;;17.60;99.90;;;;;;5008073;28;20263;-63
2021/09/15 00:45:17;;;;;;;10.73;7.93;;;17.60;99.90;;;;;;5009185;28;20203;-63
2021/09/15 00:47:43;;;;;;;12.13;7.80;;;17.60;99.90;;;;;;5006428;28;20184;-63
2021/09/15 00:50:09;;;;;;;9.17;7.90;;;17.60;99.90;;;;;;5010755;28;20187;-63
2021/09/15 00:52:35;;;;;;;10.90;8.30;;;17.60;99.90;;;;;;5003244;28;20227;-64
2021/09/15 00:55:01;;;;;;;14.47;8.40;;;17.60;99.90;;;;;;4987599;28;20844;-64
2021/09/15 00:57:26;;;;;;;10.67;7.80;;;17.50;99.90;;;;;;5007426;28;20243;-63
2021/09/15 00:59:52;;;;;;;9.07;7.33;;;17.50;99.90;;;;;;5005942;28;20192;-64
2021/09/15 01:02:18;;;;;;;11.33;7.93;;;17.50;99.90;;;;;;4993803;28;20204;-64
2021/09/15 01:04:44;;;;;;;11.47;7.73;;;17.50;99.90;;;;;;5004844;28;20438;-64
2021/09/15 01:07:10;;;;;;;10.73;7.80;;;17.50;99.90;;;;;;5006334;28;20523;-63
2021/09/15 01:09:36;;;;;;;10.97;8.47;;;17.40;99.90;;;;;;4990398;28;20921;-63
2021/09/15 01:12:03;;;;;;;13.00;7.93;;;17.40;99.90;;;;;;5008549;28;22184;-63
2021/09/15 01:14:29;;;;;;;13.40;7.87;;;17.40;99.90;;;;;;5002445;28;20959;-63
2021/09/15 01:16:58;;;;;;;11.93;8.63;;;17.40;99.90;;;;;;5011154;28;20936;-64
2021/09/15 01:19:25;;;;;;;14.40;8.90;;;17.30;99.90;;;;;;5007622;28;20235;-63
2021/09/15 01:21:52;;;;;;;12.90;8.50;;;17.30;99.90;;;;;;5006119;28;20463;-62
2021/09/15 01:24:18;;;;;;;11.60;8.10;;;17.30;99.90;;;;;;5005634;28;20455;-64
2021/09/15 01:26:43;;;;;;;13.93;7.90;;;17.30;99.90;;;;;;4991573;28;20439;-64
2021/09/15 01:29:17;;;;;;;10.53;7.93;;;17.30;99.90;;;;;;5011684;28;20447;-63
2021/09/15 01:32:04;;;;;;;11.43;8.40;;;17.30;99.90;;;;;;4990253;28;20576;-62
2021/09/15 01:34:36;;;;;;;13.00;8.90;;;17.30;99.90;;;;;;5006779;28;20972;-63
2021/09/15 01:37:04;;;;;;;29.00;16.73;;;17.40;99.90;;;;;;5010431;28;20415;-63
2021/09/15 01:39:29;;;;;;;57.20;27.63;;;17.40;99.90;;;;;;5002614;28;20443;-64
2021/09/15 01:42:03;;;;;;;24.53;12.70;;;17.40;99.90;;;;;;5012217;28;20565;-63
2021/09/15 01:44:36;;;;;;;15.73;9.60;;;17.40;99.90;;;;;;5008026;28;20180;-62
2021/09/15 01:47:07;;;;;;;15.90;8.13;;;17.40;99.90;;;;;;5005848;28;20451;-63
2021/09/15 01:49:34;;;;;;;11.60;7.70;;;17.40;99.90;;;;;;5007784;28;20507;-63
2021/09/15 01:52:01;;;;;;;12.40;8.40;;;17.30;99.90;;;;;;5006995;28;20517;-62
2021/09/15 01:54:29;;;;;;;11.40;8.33;;;17.30;99.90;;;;;;5006247;28;20458;-64
2021/09/15 01:56:55;;;;;;;13.60;8.20;;;17.30;99.90;;;;;;5006981;28;20459;-64
2021/09/15 01:59:21;;;;;;;11.33;7.80;;;17.30;99.90;;;;;;5006328;28;20435;-63
2021/09/15 02:01:46;;;;;;;13.20;8.37;;;17.30;99.90;;;;;;5007393;28;20458;-63
2021/09/15 02:04:12;;;;;;;13.07;7.73;;;17.30;99.90;;;;;;5009145;28;20562;-63
2021/09/15 02:06:38;;;;;;;10.20;8.67;;;17.30;99.90;;;;;;4988949;28;20705;-63
2021/09/15 02:09:04;;;;;;;9.90;7.80;;;17.30;99.90;;;;;;5005403;28;20183;-63
2021/09/15 02:11:31;;;;;;;17.70;7.73;;;17.30;99.90;;;;;;4992912;28;20196;-63
2021/09/15 02:13:57;;;;;;;11.13;8.07;;;17.30;99.90;;;;;;5006919;28;20467;-63
2021/09/15 02:16:23;;;;;;;14.13;7.27;;;17.20;99.90;;;;;;5004564;28;20442;-63
2021/09/15 02:18:49;;;;;;;10.90;7.30;;;17.20;99.90;;;;;;5009249;28;20181;-63
2021/09/15 02:21:16;;;;;;;11.20;7.50;;;17.20;99.90;;;;;;5000158;28;20522;-64
2021/09/15 02:23:42;;;;;;;9.17;7.63;;;17.20;99.90;;;;;;5003173;28;20186;-63
2021/09/15 02:26:08;;;;;;;12.13;7.93;;;17.20;99.90;;;;;;5005934;28;20796;-63
2021/09/15 02:28:33;;;;;;;14.90;8.27;;;17.20;99.90;;;;;;4998417;28;20230;-63
2021/09/15 02:30:59;;;;;;;16.63;8.30;;;17.20;99.90;;;;;;5006432;28;20983;-63
2021/09/15 02:33:25;;;;;;;10.30;7.60;;;17.20;99.90;;;;;;5006185;28;20216;-63
2021/09/15 02:35:50;;;;;;;9.57;8.20;;;17.20;99.90;;;;;;5005412;28;20212;-63
2021/09/15 02:38:19;;;;;;;11.87;7.70;;;17.20;99.90;;;;;;4996603;28;20173;-63
2021/09/15 02:40:44;;;;;;;17.90;8.27;;;17.20;99.90;;;;;;5007400;28;20231;-62
2021/09/15 02:43:10;;;;;;;13.43;8.50;;;17.20;99.90;;;;;;5005614;28;20475;-63
2021/09/15 02:45:36;;;;;;;11.73;7.70;;;17.10;99.90;;;;;;5007975;28;20184;-62
2021/09/15 02:48:01;;;;;;;20.50;8.40;;;17.10;99.90;;;;;;5007199;28;20187;-63
2021/09/15 02:50:27;;;;;;;9.57;7.93;;;17.10;99.90;;;;;;5004794;28;20922;-63
2021/09/15 02:52:52;;;;;;;15.60;8.03;;;17.10;99.90;;;;;;5005092;28;20200;-63
2021/09/15 02:55:18;;;;;;;12.23;8.20;;;17.10;99.90;;;;;;5005381;28;20362;-64
2021/09/15 02:57:44;;;;;;;11.13;7.33;;;17.10;99.90;;;;;;5004555;28;20215;-63
2021/09/15 03:00:10;;;;;;;8.37;6.90;;;17.10;99.90;;;;;;5005927;28;20224;-64
2021/09/15 03:02:36;;;;;;;10.10;8.03;;;17.10;99.90;;;;;;5005927;28;20211;-63
2021/09/15 03:05:02;;;;;;;10.50;8.30;;;17.10;99.90;;;;;;5009213;28;20434;-63
2021/09/15 03:07:27;;;;;;;11.70;7.40;;;17.10;99.90;;;;;;5007234;28;20263;-62
2021/09/15 03:09:53;;;;;;;12.70;7.27;;;17.10;99.90;;;;;;5004467;28;20527;-63
2021/09/15 03:12:19;;;;;;;10.37;7.70;;;17.10;99.90;;;;;;5005422;28;20585;-63
2021/09/15 03:14:44;;;;;;;12.40;8.60;;;17.10;99.90;;;;;;4987544;28;20651;-63
2021/09/15 03:17:10;;;;;;;13.30;7.57;;;17.10;99.90;;;;;;5003952;28;20252;-64
2021/09/15 03:19:36;;;;;;;11.90;7.60;;;17.10;99.90;;;;;;5008927;28;20188;-63
2021/09/15 03:22:01;;;;;;;10.60;7.80;;;17.00;99.90;;;;;;5012423;28;20200;-63
2021/09/15 03:24:27;;;;;;;10.50;8.00;;;17.10;99.90;;;;;;5009289;28;20675;-63
2021/09/15 03:26:53;;;;;;;9.30;7.47;;;17.00;99.90;;;;;;5009657;28;20267;-63
2021/09/15 03:29:18;;;;;;;11.83;8.17;;;17.00;99.90;;;;;;5009386;28;20227;-63
2021/09/15 03:31:44;;;;;;;9.90;7.50;;;17.00;99.90;;;;;;5010012;28;20211;-63
2021/09/15 03:34:10;;;;;;;15.80;8.33;;;17.00;99.90;;;;;;5011402;28;20203;-63
2021/09/15 03:36:36;;;;;;;8.77;7.60;;;17.00;99.90;;;;;;5006378;28;20176;-63
2021/09/15 03:39:04;;;;;;;15.53;7.90;;;17.00;99.90;;;;;;5010372;28;20276;-62
2021/09/15 03:41:29;;;;;;;12.73;8.80;;;17.00;99.90;;;;;;5005094;28;20541;-63
2021/09/15 03:43:55;;;;;;;13.33;7.60;;;17.00;99.90;;;;;;5006218;28;20527;-63
2021/09/15 03:46:21;;;;;;;12.40;8.60;;;17.00;99.90;;;;;;5007947;28;20187;-63
2021/09/15 03:48:46;;;;;;;12.37;8.30;;;17.00;99.90;;;;;;5007490;28;20191;-63
2021/09/15 03:51:13;;;;;;;12.40;8.40;;;17.00;99.90;;;;;;5008519;28;20290;-63
2021/09/15 03:53:38;;;;;;;11.37;8.40;;;17.00;99.90;;;;;;4985763;28;20284;-63
2021/09/15 03:56:04;;;;;;;10.37;8.00;;;17.00;99.90;;;;;;5014608;28;20558;-63
2021/09/15 03:58:30;;;;;;;11.10;7.33;;;17.00;99.90;;;;;;4993305;28;20346;-63
2021/09/15 04:00:55;;;;;;;13.30;7.63;;;17.00;99.90;;;;;;5004051;28;20219;-60
2021/09/15 04:03:21;;;;;;;10.27;7.70;;;17.00;99.90;;;;;;5005292;28;20181;-59
2021/09/15 04:05:47;;;;;;;11.20;8.60;;;17.00;99.90;;;;;;5002393;28;20192;-59
2021/09/15 04:08:13;;;;;;;11.30;8.63;;;17.00;99.90;;;;;;5003202;28;20536;-59
2021/09/15 04:10:38;;;;;;;12.77;8.70;;;17.10;99.90;;;;;;4988052;28;20219;-62
2021/09/15 04:13:04;;;;;;;14.77;8.67;;;17.10;99.90;;;;;;5002661;28;20226;-62
2021/09/15 04:15:30;;;;;;;15.07;8.53;;;17.10;99.90;;;;;;5005114;28;20661;-62
2021/09/15 04:17:55;;;;;;;13.50;9.17;;;17.10;99.90;;;;;;5004820;28;20235;-61
2021/09/15 04:20:22;;;;;;;13.37;8.60;;;17.10;99.90;;;;;;4987047;28;20183;-63
2021/09/15 04:22:48;;;;;;;18.53;8.97;;;17.10;99.90;;;;;;5004556;28;20208;-65
2021/09/15 04:33:27;;;;;;;15.63;8.80;;;17.00;99.90;;;;;;5005601;28;20473;-62
2021/09/15 04:35:52;;;;;;;14.40;8.93;;;17.10;99.90;;;;;;5005082;28;20427;-62
2021/09/15 04:38:18;;;;;;;11.40;8.30;;;17.10;99.90;;;;;;5004289;28;20664;-57
2021/09/15 04:40:44;;;;;;;14.37;9.73;;;17.10;99.90;;;;;;5000000;28;20211;-64
2021/09/15 04:43:09;;;;;;;14.03;10.70;;;17.10;99.90;;;;;;4989828;28;20176;-63
2021/09/15 04:45:36;;;;;;;12.23;9.67;;;17.10;99.90;;;;;;5005860;28;20188;-62
2021/09/15 04:48:03;;;;;;;17.20;9.10;;;17.10;99.90;;;;;;5014007;28;20168;-63
2021/09/15 04:50:29;;;;;;;15.00;10.13;;;17.20;99.90;;;;;;5009292;28;20423;-63
2021/09/15 04:52:54;;;;;;;13.53;9.10;;;17.20;99.90;;;;;;4990353;28;20846;-63
2021/09/15 04:55:20;;;;;;;13.27;8.63;;;17.10;99.90;;;;;;5008249;28;20173;-63
2021/09/15 04:57:46;;;;;;;14.20;8.10;;;17.10;99.90;;;;;;4985967;28;20191;-62
2021/09/15 05:00:12;;;;;;;12.93;8.37;;;17.10;99.90;;;;;;5006095;28;20176;-62
2021/09/15 05:02:37;;;;;;;14.50;9.00;;;17.10;99.90;;;;;;5010124;28;20261;-63
2021/09/15 05:05:03;;;;;;;12.53;8.20;;;17.10;99.90;;;;;;5010240;28;20516;-63
2021/09/15 05:07:29;;;;;;;11.27;8.53;;;17.00;99.90;;;;;;4994899;28;20207;-63
2021/09/15 05:09:55;;;;;;;15.80;8.80;;;17.00;99.90;;;;;;4993249;28;20622;-62
2021/09/15 05:12:22;;;;;;;15.93;8.90;;;17.00;99.90;;;;;;4992786;28;20283;-63
2021/09/15 05:14:48;;;;;;;19.83;8.57;;;17.00;99.90;;;;;;5010084;28;20212;-63
2021/09/15 05:17:14;;;;;;;12.90;8.80;;;17.00;99.90;;;;;;4993866;28;20555;-63
2021/09/15 05:19:39;;;;;;;14.03;8.47;;;17.00;99.90;;;;;;4972938;28;20185;-63
2021/09/15 05:22:05;;;;;;;13.60;9.47;;;17.00;99.90;;;;;;4985329;28;20204;-63
2021/09/15 05:24:30;;;;;;;12.03;9.20;;;17.00;99.90;;;;;;4996600;28;20189;-63
2021/09/15 05:26:56;;;;;;;13.47;8.60;;;17.00;99.90;;;;;;5010537;28;20673;-63
2021/09/15 05:29:22;;;;;;;13.33;8.77;;;17.00;99.90;;;;;;4991570;28;20172;-64
2021/09/15 05:31:47;;;;;;;14.50;9.67;;;17.00;99.90;;;;;;5010059;28;20291;-62
2021/09/15 05:34:13;;;;;;;13.60;9.40;;;17.00;99.90;;;;;;5010315;28;20184;-62
2021/09/15 05:36:39;;;;;;;14.40;8.90;;;16.90;99.90;;;;;;5011014;28;20171;-63
2021/09/15 05:39:05;;;;;;;15.80;9.43;;;16.90;99.90;;;;;;4992459;28;20173;-64
2021/09/15 05:41:30;;;;;;;17.67;9.67;;;16.90;99.90;;;;;;4997742;28;20201;-62
2021/09/15 05:43:56;;;;;;;16.20;11.30;;;16.90;99.90;;;;;;4998999;28;20838;-62
2021/09/15 05:46:22;;;;;;;20.17;11.70;;;16.90;99.90;;;;;;4988725;28;20246;-62
2021/09/15 05:48:47;;;;;;;17.40;11.27;;;16.90;99.90;;;;;;4991563;28;20180;-63
2021/09/15 05:51:13;;;;;;;17.77;12.57;;;16.90;99.90;;;;;;4973791;28;20460;-63
2021/09/15 05:53:39;;;;;;;23.33;12.47;;;16.90;99.90;;;;;;4991001;28;20236;-63
2021/09/15 05:56:05;;;;;;;17.43;13.10;;;16.90;99.90;;;;;;5002732;28;20168;-63
2021/09/15 05:58:30;;;;;;;22.57;13.10;;;16.90;99.90;;;;;;4992596;28;20359;-64
2021/09/15 06:00:56;;;;;;;31.73;15.50;;;17.00;99.90;;;;;;5005890;28;20235;-63
2021/09/15 06:03:22;;;;;;;19.90;13.63;;;16.90;99.90;;;;;;5009791;28;20720;-62
2021/09/15 06:05:47;;;;;;;20.43;12.53;;;16.90;99.90;;;;;;5002243;28;20169;-62
2021/09/15 06:08:13;;;;;;;20.57;12.97;;;16.90;99.90;;;;;;4990536;28;20508;-62
2021/09/15 06:10:38;;;;;;;22.23;13.83;;;17.00;99.90;;;;;;4992817;28;20704;-62
2021/09/15 06:13:04;;;;;;;15.23;10.60;;;17.00;99.90;;;;;;5016308;28;20557;-63
2021/09/15 06:15:30;;;;;;;13.47;9.80;;;17.00;99.90;;;;;;4992870;28;20172;-65
2021/09/15 06:17:56;;;;;;;11.20;9.07;;;17.00;99.90;;;;;;4990610;28;20173;-64
2021/09/15 06:20:22;;;;;;;13.27;9.67;;;17.10;99.90;;;;;;5009710;28;20419;-62
2021/09/15 06:22:47;;;;;;;8.77;7.00;;;17.10;99.90;;;;;;5001714;28;20185;-62
2021/09/15 06:25:15;;;;;;;15.40;7.20;;;17.10;99.90;;;;;;4972542;28;20263;-62
2021/09/15 06:27:41;;;;;;;11.50;7.43;;;17.20;99.90;;;;;;4990061;28;20177;-62
2021/09/15 06:30:08;;;;;;;8.93;6.70;;;17.20;99.90;;;;;;5000920;28;20514;-63
2021/09/15 06:32:34;;;;;;;13.83;7.27;;;17.30;99.90;;;;;;5001670;28;20490;-63
2021/09/15 06:34:59;;;;;;;12.10;6.47;;;17.30;99.90;;;;;;5009516;28;20423;-62
2021/09/15 06:37:25;;;;;;;10.83;7.67;;;17.30;99.90;;;;;;5009391;28;20211;-64
2021/09/15 06:39:51;;;;;;;9.40;7.37;;;17.40;99.90;;;;;;4998983;28;20256;-63
2021/09/15 06:42:16;;;;;;;12.17;7.20;;;17.40;99.90;;;;;;4989813;28;20193;-63
2021/09/15 06:44:42;;;;;;;11.57;7.10;;;17.40;99.90;;;;;;5004972;28;20180;-62
2021/09/15 06:47:08;;;;;;;13.37;6.80;;;17.50;99.90;;;;;;5004039;28;20181;-62
2021/09/15 06:49:34;;;;;;;14.40;6.63;;;17.50;99.90;;;;;;5001113;28;20420;-62
2021/09/15 06:52:00;;;;;;;11.90;7.20;;;17.40;99.90;;;;;;4990543;28;20197;-63
2021/09/15 06:54:26;;;;;;;9.97;7.20;;;17.40;99.90;;;;;;4972831;28;20432;-62
2021/09/15 06:56:51;;;;;;;11.37;6.53;;;17.50;99.90;;;;;;5001427;28;20234;-62
2021/09/15 06:59:17;;;;;;;10.33;6.93;;;17.50;99.90;;;;;;5007501;28;20426;-63
2021/09/15 07:01:43;;;;;;;12.53;7.17;;;17.50;99.90;;;;;;5009186;28;20192;-62
2021/09/15 07:04:09;;;;;;;12.20;6.40;;;17.60;99.90;;;;;;5006121;28;20224;-62
2021/09/15 07:06:34;;;;;;;10.60;7.07;;;17.60;99.90;;;;;;4989932;28;20169;-63
2021/09/15 07:09:00;;;;;;;12.50;7.37;;;17.60;99.90;;;;;;4988738;28;20529;-62
2021/09/15 07:11:26;;;;;;;10.70;6.80;;;17.60;99.90;;;;;;4988983;28;20207;-62
2021/09/15 07:13:51;;;;;;;11.83;6.73;;;17.60;99.90;;;;;;4997021;28;20469;-61
2021/09/15 07:16:17;;;;;;;14.07;6.90;;;17.60;99.90;;;;;;5009049;28;20176;-63
2021/09/15 07:18:44;;;;;;;8.47;6.37;;;17.70;99.90;;;;;;5008131;28;20180;-63
2021/09/15 07:21:10;;;;;;;12.10;7.33;;;17.70;99.90;;;;;;5009180;28;20275;-62
2021/09/15 07:23:36;;;;;;;12.30;7.60;;;17.70;99.90;;;;;;5004531;28;20458;-63
2021/09/15 07:26:02;;;;;;;23.97;7.27;;;17.70;99.90;;;;;;5008743;28;20412;-62
2021/09/15 07:28:27;;;;;;;8.87;7.30;;;17.80;99.90;;;;;;5013608;28;20938;-62
2021/09/15 07:30:53;;;;;;;12.40;6.47;;;17.80;99.90;;;;;;5008239;28;20466;-64
2021/09/15 07:33:19;;;;;;;10.40;6.50;;;17.80;99.90;;;;;;4997892;28;20228;-63
2021/09/15 07:35:45;;;;;;;13.20;8.60;;;17.90;99.90;;;;;;4999274;28;20180;-63
2021/09/15 07:38:10;;;;;;;12.27;9.20;;;18.00;99.90;;;;;;4990564;28;20203;-63
2021/09/15 07:40:36;;;;;;;11.97;7.23;;;18.00;99.90;;;;;;5008335;28;20602;-62
2021/09/15 07:43:02;;;;;;;12.87;9.33;;;18.00;99.90;;;;;;4995443;28;20223;-64
2021/09/15 07:45:28;;;;;;;14.53;8.60;;;18.10;99.90;;;;;;5007259;28;20185;-63
2021/09/15 07:47:54;;;;;;;10.43;7.90;;;18.20;99.90;;;;;;5007734;28;20250;-60
2021/09/15 07:50:19;;;;;;;9.70;7.60;;;18.30;99.90;;;;;;5008350;28;20415;-63
2021/09/15 07:52:45;;;;;;;11.03;7.50;;;18.30;99.90;;;;;;5008574;28;20250;-62
2021/09/15 07:55:11;;;;;;;13.73;8.27;;;18.40;99.90;;;;;;5006675;28;20180;-62
2021/09/15 07:57:42;;;;;;;13.33;8.13;;;18.50;99.90;;;;;;5008327;28;20260;-63
2021/09/15 08:00:09;;;;;;;10.50;7.37;;;18.50;99.90;;;;;;4988678;28;20624;-61
2021/09/15 08:02:35;;;;;;;9.00;6.80;;;18.60;99.90;;;;;;5008441;28;20443;-63
2021/09/15 08:05:00;;;;;;;12.23;7.23;;;18.60;99.90;;;;;;4992899;28;20791;-63
2021/09/15 08:07:26;;;;;;;12.10;7.50;;;18.60;99.90;;;;;;5011761;28;20176;-62
2021/09/15 08:09:52;;;;;;;7.67;6.70;;;18.60;99.90;;;;;;5004643;28;20180;-64
2021/09/15 08:12:17;;;;;;;11.63;7.33;;;18.60;99.90;;;;;;5008041;28;20213;-63
2021/09/15 08:14:43;;;;;;;15.53;8.23;;;18.70;99.90;;;;;;4991908;28;20642;-63
2021/09/15 08:17:08;;;;;;;14.03;8.03;;;18.70;99.90;;;;;;4994930;28;20656;-63
2021/09/15 08:19:34;;;;;;;14.07;7.80;;;18.70;99.90;;;;;;5007294;28;20179;-62
2021/09/15 08:22:00;;;;;;;10.33;7.90;;;18.70;99.90;;;;;;5010878;28;20311;-62
2021/09/15 08:24:26;;;;;;;10.43;7.80;;;18.70;99.90;;;;;;5010191;28;20696;-63
2021/09/15 08:26:51;;;;;;;17.13;7.40;;;18.60;99.90;;;;;;5010718;28;20180;-64
2021/09/15 08:29:17;;;;;;;11.50;7.50;;;18.60;99.90;;;;;;5010927;28;20521;-63
2021/09/15 08:31:43;;;;;;;15.60;7.87;;;18.60;99.90;;;;;;5008967;28;20751;-63
2021/09/15 08:34:08;;;;;;;10.57;7.37;;;18.60;99.90;;;;;;5005809;28;20564;-63
2021/09/15 08:36:34;;;;;;;14.57;7.47;;;18.60;99.90;;;;;;5006325;28;20660;-63
2021/09/15 08:39:00;;;;;;;14.70;7.33;;;18.60;99.90;;;;;;5010461;28;20630;-63
2021/09/15 08:41:26;;;;;;;11.10;6.87;;;18.60;99.90;;;;;;5011483;28;20200;-63
2021/09/15 08:43:51;;;;;;;11.17;6.43;;;18.60;99.90;;;;;;5002363;28;20931;-61
2021/09/15 08:46:20;;;;;;;7.43;6.20;;;18.60;99.90;;;;;;5010991;28;20660;-63
2021/09/15 08:48:46;;;;;;;13.23;6.30;;;18.70;99.90;;;;;;5010753;28;20395;-62
2021/09/15 08:51:13;;;;;;;13.50;6.47;;;18.70;99.90;;;;;;5009213;28;20455;-62
2021/09/15 08:53:41;;;;;;;9.30;5.80;;;18.70;99.90;;;;;;5010192;28;20466;-63
2021/09/15 08:56:07;;;;;;;11.43;6.10;;;18.80;99.90;;;;;;5011493;28;20498;-62
2021/09/15 08:58:33;;;;;;;9.03;5.87;;;18.90;99.90;;;;;;4992945;28;20493;-62
2021/09/15 09:01:17;;;;;;;11.33;5.90;;;18.90;99.90;;;;;;4995205;28;20460;-63
2021/09/15 09:03:45;;;;;;;12.83;6.50;;;19.00;99.90;;;;;;5007799;28;20763;-62
2021/09/15 09:06:12;;;;;;;9.10;6.67;;;19.10;99.90;;;;;;5009709;28;20427;-62
2021/09/15 09:08:42;;;;;;;12.63;5.90;;;19.20;99.90;;;;;;5009357;28;20463;-64
2021/09/15 09:11:09;;;;;;;15.23;6.30;;;19.30;99.90;;;;;;5009792;28;20447;-64
2021/09/15 09:13:44;;;;;;;9.60;6.37;;;19.30;99.90;;;;;;4993214;28;20454;-62
2021/09/15 09:16:10;;;;;;;12.00;6.83;;;19.30;99.90;;;;;;5010395;28;20447;-63
2021/09/15 09:18:55;;;;;;;9.40;5.77;;;19.30;99.90;;;;;;4992613;28;20451;-64
2021/09/15 09:21:29;;;;;;;11.60;5.90;;;19.40;99.90;;;;;;5010797;28;20286;-61
2021/09/15 09:24:00;;;;;;;9.20;6.37;;;19.40;99.90;;;;;;5010639;28;20427;-62
2021/09/15 09:26:45;;;;;;;16.70;6.53;;;19.40;99.90;;;;;;5000164;28;20451;-63
2021/09/15 09:29:12;;;;;;;11.90;6.93;;;19.30;99.90;;;;;;4989294;28;20404;-63
2021/09/15 09:31:38;;;;;;;11.17;6.43;;;19.20;99.90;;;;;;4990066;28;20464;-65
2021/09/15 09:34:04;;;;;;;15.13;6.30;;;19.20;99.90;;;;;;5002995;28;20961;-63
2021/09/15 09:36:30;;;;;;;9.67;6.30;;;19.20;99.90;;;;;;5010247;28;20177;-62
2021/09/15 09:38:55;;;;;;;11.17;5.77;;;19.20;99.90;;;;;;5009301;28;20831;-62
2021/09/15 09:41:22;;;;;;;11.93;7.00;;;19.30;99.90;;;;;;5010224;28;20557;-63
2021/09/15 09:43:51;;;;;;;10.50;7.00;;;19.40;99.90;;;;;;5000013;28;20545;-63
2021/09/15 09:46:20;;;;;;;11.53;6.70;;;19.50;99.90;;;;;;5009076;28;20515;-64
2021/09/15 09:48:48;;;;;;;14.57;6.07;;;19.60;99.90;;;;;;5008023;28;20466;-63
2021/09/15 09:51:33;;;;;;;7.67;6.20;;;19.70;99.90;;;;;;5007585;28;20473;-63
2021/09/15 09:54:10;;;;;;;11.63;7.47;;;19.80;99.90;;;;;;5012605;28;20466;-63
2021/09/15 09:56:37;;;;;;;6.80;5.43;;;19.80;99.90;;;;;;5009940;28;20530;-62
2021/09/15 09:59:04;;;;;;;11.07;6.47;;;19.80;99.90;;;;;;5008177;28;20427;-62
2021/09/15 10:01:35;;;;;;;13.03;6.53;;;19.70;99.90;;;;;;5009633;28;20427;-63
2021/09/15 10:04:02;;;;;;;13.23;6.90;;;19.70;99.90;;;;;;5008444;28;20916;-62
2021/09/15 10:06:28;;;;;;;7.40;6.10;;;19.70;99.90;;;;;;4993777;28;20804;-64
2021/09/15 10:08:54;;;;;;;14.13;6.40;;;19.70;99.90;;;;;;5008144;28;20442;-63
2021/09/15 10:11:22;;;;;;;8.03;5.60;;;19.80;99.90;;;;;;5009911;28;20669;-63
2021/09/15 10:13:47;;;;;;;10.67;6.23;;;19.80;99.90;;;;;;5009225;28;20443;-63
2021/09/15 10:16:16;;;;;;;11.03;6.47;;;19.70;99.90;;;;;;5009528;28;20622;-63
2021/09/15 10:18:43;;;;;;;16.13;6.27;;;19.70;99.90;;;;;;4986443;28;20192;-62
2021/09/15 10:21:09;;;;;;;9.40;6.40;;;19.70;99.90;;;;;;4990784;28;20498;-62
2021/09/15 10:23:37;;;;;;;10.23;6.10;;;19.70;99.90;;;;;;5009162;28;20713;-63
2021/09/15 10:26:29;;;;;;;10.70;6.20;;;19.60;99.90;;;;;;4988670;28;20440;-63
2021/09/15 10:29:30;;;;;;;15.00;6.70;;;19.60;99.90;;;;;;5001394;28;20463;-63
2021/09/15 10:31:56;;;;;;;10.50;6.67;;;19.50;99.90;;;;;;5006138;28;20474;-62
2021/09/15 10:34:40;;;;;;;10.10;6.40;;;19.50;99.90;;;;;;4989863;28;20479;-61
2021/09/15 10:37:27;;;;;;;9.00;6.50;;;19.50;99.90;;;;;;5004647;28;20176;-62
2021/09/15 10:39:53;;;;;;;10.80;6.37;;;19.40;99.90;;;;;;5004400;28;20549;-61
2021/09/15 10:42:34;;;;;;;8.13;6.13;;;19.40;99.90;;;;;;5007144;28;20447;-62
2021/09/15 10:45:09;;;;;;;17.00;6.40;;;19.40;99.90;;;;;;5004841;28;20423;-62
2021/09/15 10:47:53;;;;;;;11.20;6.63;;;19.40;99.90;;;;;;5004225;28;20497;-62
2021/09/15 10:50:28;;;;;;;9.63;7.40;;;19.40;99.90;;;;;;4988792;28;20430;-62
2021/09/15 10:53:03;;;;;;;13.93;6.57;;;19.40;99.90;;;;;;5006870;28;20455;-63
2021/09/15 10:55:38;;;;;;;20.67;7.30;;;19.40;99.90;;;;;;4993993;28;20426;-63
2021/09/15 10:58:20;;;;;;;8.37;6.33;;;19.30;99.90;;;;;;5002057;28;20493;-64
2021/09/15 11:00:48;;;;;;;8.77;6.50;;;19.30;99.90;;;;;;5007759;28;20548;-61
2021/09/15 11:03:23;;;;;;;11.37;6.57;;;19.30;99.90;;;;;;5007168;28;20431;-61
2021/09/15 11:05:50;;;;;;;8.10;6.03;;;19.30;99.90;;;;;;5004486;28;20509;-61
2021/09/15 11:08:34;;;;;;;6.87;5.77;;;19.40;99.90;;;;;;5007255;28;20430;-62
2021/09/15 11:11:01;;;;;;;8.10;5.40;;;19.40;99.90;;;;;;4982656;28;20545;-61
2021/09/15 11:13:36;;;;;;;10.10;5.57;;;19.40;99.90;;;;;;5006125;28;20775;-62
2021/09/15 11:16:24;;;;;;;9.30;5.63;;;19.40;99.90;;;;;;5004311;28;20593;-63
2021/09/15 11:19:24;;;;;;;7.60;5.63;;;19.40;99.90;;;;;;5003784;28;20615;-61
2021/09/15 11:21:55;;;;;;;8.10;5.17;;;19.40;99.90;;;;;;4975916;28;20547;-63
2021/09/15 11:24:23;;;;;;;9.20;5.30;;;19.40;99.90;;;;;;5007540;28;20859;-61
2021/09/15 11:26:54;;;;;;;8.50;5.80;;;19.30;99.90;;;;;;5003693;28;20551;-61
2021/09/15 11:29:38;;;;;;;6.60;5.13;;;19.30;99.90;;;;;;5005122;28;20427;-61
2021/09/15 11:32:06;;;;;;;8.40;5.70;;;19.30;99.90;;;;;;5007286;28;20936;-61
2021/09/15 11:34:45;;;;;;;7.87;5.90;;;19.30;99.90;;;;;;5005801;28;21250;-61
2021/09/15 11:37:17;;;;;;;14.33;5.83;;;19.40;99.90;;;;;;5009968;28;20457;-61
2021/09/15 11:39:43;;;;;;;7.47;5.97;;;19.40;99.90;;;;;;5004854;28;20420;-61
2021/09/15 11:42:09;;;;;;;9.87;5.93;;;19.30;99.90;;;;;;5009503;28;20781;-63
2021/09/15 11:44:35;;;;;;;9.23;5.50;;;19.40;99.90;;;;;;4991373;28;20493;-62
2021/09/15 11:47:02;;;;;;;7.43;5.60;;;19.40;99.90;;;;;;5014664;28;20177;-63
2021/09/15 11:49:33;;;;;;;7.20;5.77;;;19.50;99.90;;;;;;5007648;28;20183;-61
2021/09/15 11:52:00;;;;;;;7.13;5.27;;;19.60;99.90;;;;;;5009312;28;20525;-61
2021/09/15 11:54:27;;;;;;;10.73;5.70;;;19.80;99.90;;;;;;4987201;28;20998;-62
2021/09/15 11:57:04;;;;;;;9.70;5.97;;;19.90;99.90;;;;;;5010067;28;20465;-62
2021/09/15 11:59:30;;;;;;;7.43;4.87;;;19.90;99.90;;;;;;5009594;28;20414;-61
2021/09/15 12:01:56;;;;;;;6.43;5.17;;;19.90;99.90;;;;;;5009645;28;20447;-61
2021/09/15 12:04:23;;;;;;;11.40;5.30;;;19.80;99.90;;;;;;5007483;28;20673;-61
2021/09/15 12:06:49;;;;;;;8.13;5.53;;;19.80;99.90;;;;;;5005521;28;20439;-62
2021/09/15 12:09:16;;;;;;;8.50;5.67;;;19.70;99.90;;;;;;5007329;28;20508;-61
2021/09/15 12:11:48;;;;;;;7.60;5.53;;;19.70;99.90;;;;;;5010238;28;20548;-63
2021/09/15 12:14:14;;;;;;;8.87;5.90;;;19.70;99.90;;;;;;5010106;28;20872;-63
2021/09/15 12:16:42;;;;;;;10.90;6.53;;;19.70;99.90;;;;;;5009481;28;20438;-61
2021/09/15 12:19:19;;;;;;;8.57;5.87;;;19.80;99.90;;;;;;5007337;28;20423;-64
2021/09/15 12:21:48;;;;;;;9.87;6.27;;;19.80;99.90;;;;;;5001724;28;20463;-59
2021/09/15 12:24:16;;;;;;;13.07;5.73;;;19.80;99.90;;;;;;4999622;28;20435;-58
2021/09/15 12:26:42;;;;;;;7.03;5.80;;;19.80;99.90;;;;;;5006389;28;20467;-56
2021/09/15 12:29:09;;;;;;;7.40;5.23;;;19.70;99.90;;;;;;5002062;28;20469;-53
2021/09/15 12:31:38;;;;;;;7.70;6.33;;;19.70;99.90;;;;;;5008136;28;21469;-56
2021/09/15 12:34:04;;;;;;;10.67;6.20;;;19.60;99.90;;;;;;5005724;28;20557;-59
2021/09/15 12:36:30;;;;;;;11.00;6.50;;;19.60;99.90;;;;;;5007249;28;20490;-55
2021/09/15 12:39:00;;;;;;;10.87;6.43;;;19.60;99.90;;;;;;5008284;28;20182;-56
2021/09/15 12:41:45;;;;;;;11.23;6.33;;;19.60;99.90;;;;;;5006518;28;20875;-55
2021/09/15 12:44:12;;;;;;;12.70;6.40;;;19.70;99.90;;;;;;5007290;28;20983;-57
2021/09/15 12:46:45;;;;;;;14.63;6.90;;;19.90;99.90;;;;;;5010825;28;20430;-56
2021/09/15 12:49:11;;;;;;;12.20;6.50;;;20.20;99.90;;;;;;5002739;28;20507;-55